Time;durP1;ratioP1;P1;durP2;ratioP2;P2;SDS_P1;SDS_P2;PMS_P1;PMS_P2;Temp;Humidity;BMP_temperature;BMP_pressure;BME280_temperature;BME280_humidity;BME280_pressure;Samples;Min_cycle;Max_cycle;Signal;HPM_P1;HPM_P2
2021/08/09 00:00:39;;;;;;;3.90;3.10;;;13.70;99.80;;;;;;6037010;23;20397;-88
2021/08/09 00:03:07;;;;;;;4.37;3.30;;;13.70;99.80;;;;;;6037160;23;20505;-88
2021/08/09 00:05:37;;;;;;;5.43;3.23;;;13.70;99.80;;;;;;6037236;23;20406;-88
2021/08/09 00:08:06;;;;;;;3.97;3.57;;;13.70;99.80;;;;;;6036480;23;20420;-88
2021/08/09 00:10:34;;;;;;;3.30;3.00;;;13.60;99.80;;;;;;6036398;23;20747;-88
2021/08/09 00:13:02;;;;;;;3.27;3.00;;;13.60;99.80;;;;;;6036744;23;20437;-87
2021/08/09 00:15:31;;;;;;;4.87;3.30;;;13.60;99.80;;;;;;6037638;23;20504;-88
2021/08/09 00:17:59;;;;;;;6.87;2.73;;;13.60;99.80;;;;;;6037591;23;20465;-88
2021/08/09 00:20:28;;;;;;;3.40;3.10;;;13.60;99.80;;;;;;6037033;23;20428;-88
2021/08/09 00:22:57;;;;;;;5.20;3.10;;;13.60;99.80;;;;;;6036784;23;20791;-88
2021/08/09 00:25:25;;;;;;;4.87;3.13;;;13.60;99.80;;;;;;6036642;23;20747;-88
2021/08/09 00:27:53;;;;;;;4.33;3.53;;;13.60;99.80;;;;;;6036212;23;20424;-88
2021/08/09 00:30:21;;;;;;;4.23;3.10;;;13.60;99.80;;;;;;6036513;23;20417;-88
2021/08/09 00:32:49;;;;;;;3.60;3.00;;;13.60;99.80;;;;;;6036871;23;20424;-87
2021/08/09 00:35:17;;;;;;;4.83;3.57;;;13.60;99.80;;;;;;6036642;23;20500;-88
2021/08/09 00:37:45;;;;;;;5.70;3.87;;;13.50;99.80;;;;;;6036720;23;20424;-88
2021/08/09 00:40:15;;;;;;;6.20;2.93;;;13.50;99.80;;;;;;6036529;23;20426;-88
2021/08/09 00:42:43;;;;;;;3.53;3.07;;;13.50;99.80;;;;;;6036591;23;20456;-88
2021/08/09 00:45:11;;;;;;;7.20;3.47;;;13.50;99.80;;;;;;6036510;23;20428;-88
2021/08/09 00:47:39;;;;;;;3.40;3.10;;;13.50;99.80;;;;;;6035868;23;20417;-88
2021/08/09 00:50:08;;;;;;;5.20;3.20;;;13.50;99.80;;;;;;6036593;23;20445;-88
2021/08/09 00:52:37;;;;;;;5.70;3.13;;;13.60;99.80;;;;;;5997840;23;20447;-88
2021/08/09 00:55:05;;;;;;;10.30;3.20;;;13.60;99.80;;;;;;6033425;23;20487;-88
2021/08/09 00:57:34;;;;;;;5.43;3.50;;;13.60;99.80;;;;;;6033718;23;20951;-88
2021/08/09 01:00:04;;;;;;;4.13;3.47;;;13.60;99.80;;;;;;6031327;23;20440;-88
2021/08/09 01:02:32;;;;;;;3.53;3.23;;;13.60;99.80;;;;;;6023873;23;20972;-88
2021/08/09 01:05:01;;;;;;;3.37;2.90;;;13.60;99.80;;;;;;6028268;23;20452;-87
2021/08/09 01:07:36;;;;;;;3.60;3.07;;;13.60;99.80;;;;;;6023806;23;20437;-87
2021/08/09 01:10:11;;;;;;;4.60;3.20;;;13.60;99.80;;;;;;6001534;23;20445;-88
2021/08/09 01:12:47;;;;;;;4.17;3.30;;;13.60;99.80;;;;;;5991348;23;20430;-87
2021/08/09 01:15:21;;;;;;;3.53;3.23;;;13.50;99.80;;;;;;5988838;23;20445;-88
2021/08/09 01:17:50;;;;;;;7.53;2.90;;;13.50;99.80;;;;;;5983406;23;20437;-88
2021/08/09 01:20:29;;;;;;;7.00;3.20;;;13.40;99.80;;;;;;5985371;23;20464;-88
2021/08/09 01:23:14;;;;;;;3.63;2.97;;;13.20;99.80;;;;;;6001837;23;21051;-88
2021/08/09 01:25:50;;;;;;;5.03;3.37;;;13.20;99.80;;;;;;6002381;23;20782;-87
2021/08/09 01:28:20;;;;;;;6.33;3.37;;;13.00;99.80;;;;;;5995985;23;20501;-88
2021/08/09 01:30:49;;;;;;;4.43;3.30;;;13.10;99.80;;;;;;5988898;23;20950;-87
2021/08/09 01:33:19;;;;;;;3.57;3.27;;;12.90;99.80;;;;;;5991242;23;20447;-88
2021/08/09 01:35:48;;;;;;;3.50;3.20;;;12.90;99.80;;;;;;5994628;23;20443;-87
2021/08/09 01:38:17;;;;;;;4.60;3.47;;;12.90;99.80;;;;;;6020334;23;20445;-88
2021/08/09 01:40:47;;;;;;;4.13;3.33;;;12.70;99.80;;;;;;6021196;23;20455;-88
2021/08/09 01:43:16;;;;;;;7.47;3.20;;;12.70;99.80;;;;;;5995123;23;20444;-88
2021/08/09 01:45:47;;;;;;;4.23;3.37;;;12.80;99.80;;;;;;6022744;23;20459;-87
2021/08/09 01:48:16;;;;;;;2.87;2.67;;;12.80;99.80;;;;;;6016085;23;20449;-88
2021/08/09 01:50:44;;;;;;;5.77;3.10;;;12.80;99.80;;;;;;6026324;23;20956;-88
2021/08/09 01:53:13;;;;;;;6.37;3.57;;;12.80;99.80;;;;;;6032090;23;20445;-88
2021/08/09 01:55:41;;;;;;;3.93;2.97;;;12.80;99.80;;;;;;6032647;23;20437;-88
2021/08/09 01:58:09;;;;;;;3.57;3.20;;;12.80;99.80;;;;;;6030266;23;20447;-88
2021/08/09 02:00:38;;;;;;;4.57;3.17;;;12.90;99.80;;;;;;6004729;23;20452;-88
2021/08/09 02:03:07;;;;;;;4.93;3.30;;;12.90;99.80;;;;;;6024304;23;20478;-88
2021/08/09 02:05:36;;;;;;;4.17;3.57;;;12.90;99.80;;;;;;6038389;23;20425;-88
2021/08/09 02:08:04;;;;;;;4.53;2.60;;;13.00;99.80;;;;;;6037602;23;20418;-88
2021/08/09 02:10:32;;;;;;;5.13;3.00;;;13.00;99.80;;;;;;6037938;23;20424;-88
2021/08/09 02:13:06;;;;;;;4.33;3.07;;;13.00;99.80;;;;;;6037812;23;20523;-87
2021/08/09 02:15:40;;;;;;;4.47;3.10;;;13.00;99.80;;;;;;6038227;23;20654;-88
2021/08/09 02:18:18;;;;;;;4.27;3.10;;;13.00;99.80;;;;;;6037861;23;20761;-88
2021/08/09 02:20:46;;;;;;;10.13;3.10;;;13.00;99.80;;;;;;6037793;23;20420;-88
2021/08/09 02:23:19;;;;;;;4.10;3.63;;;13.00;99.80;;;;;;6037808;23;20429;-88
2021/08/09 02:25:50;;;;;;;4.27;3.20;;;13.00;99.80;;;;;;6038245;23;20384;-87
2021/08/09 02:28:20;;;;;;;5.63;3.43;;;13.00;99.80;;;;;;6037522;23;20419;-88
2021/08/09 02:30:52;;;;;;;7.17;3.03;;;13.00;99.80;;;;;;6037454;23;20410;-87
2021/08/09 02:33:23;;;;;;;4.73;3.50;;;13.00;99.80;;;;;;6037889;23;20426;-88
2021/08/09 02:35:52;;;;;;;8.80;3.70;;;13.00;99.80;;;;;;5992705;23;20444;-88
2021/08/09 02:38:22;;;;;;;7.40;3.87;;;13.00;99.80;;;;;;6022721;23;20441;-88
2021/08/09 02:40:51;;;;;;;3.70;3.40;;;13.00;99.80;;;;;;6026913;23;20479;-88
2021/08/09 02:43:20;;;;;;;8.43;3.60;;;13.00;99.80;;;;;;6024234;23;20454;-88
2021/08/09 02:45:49;;;;;;;4.70;3.80;;;13.00;99.80;;;;;;6015979;23;20430;-87
2021/08/09 02:48:18;;;;;;;3.97;3.53;;;13.00;99.80;;;;;;6016351;23;20449;-87
2021/08/09 02:50:49;;;;;;;5.90;3.60;;;13.00;99.80;;;;;;6023224;23;20945;-88
2021/08/09 02:53:18;;;;;;;4.10;3.70;;;13.10;99.80;;;;;;6026910;23;20504;-88
2021/08/09 02:55:51;;;;;;;3.20;2.90;;;13.10;99.80;;;;;;6031246;23;20448;-88
2021/08/09 02:58:20;;;;;;;3.07;2.87;;;13.10;99.80;;;;;;6032177;23;20467;-88
2021/08/09 03:00:48;;;;;;;4.23;3.20;;;13.00;99.80;;;;;;6018357;23;20446;-87
2021/08/09 03:03:21;;;;;;;3.30;2.37;;;13.00;99.80;;;;;;6020423;23;20542;-87
2021/08/09 03:05:53;;;;;;;5.83;3.40;;;13.00;99.80;;;;;;6018543;23;20786;-87
2021/08/09 03:08:23;;;;;;;5.67;3.63;;;13.00;99.80;;;;;;6032158;23;20949;-88
2021/08/09 03:10:52;;;;;;;2.87;2.67;;;13.00;99.80;;;;;;6022458;23;20525;-88
2021/08/09 03:13:24;;;;;;;3.33;3.13;;;13.00;99.80;;;;;;6014886;23;20450;-88
2021/08/09 03:15:53;;;;;;;6.97;3.57;;;13.00;99.80;;;;;;6026953;23;20471;-87
2021/08/09 03:18:21;;;;;;;5.83;3.03;;;13.00;99.80;;;;;;6023577;23;20437;-88
2021/08/09 03:21:05;;;;;;;3.80;2.73;;;13.00;99.80;;;;;;6022431;23;20440;-87
2021/08/09 03:23:34;;;;;;;3.27;2.97;;;13.00;99.80;;;;;;6026305;23;21167;-88
2021/08/09 03:26:02;;;;;;;3.53;2.90;;;13.00;99.80;;;;;;6021473;23;20778;-88
2021/08/09 03:28:30;;;;;;;5.90;3.27;;;13.00;99.80;;;;;;6022855;23;20516;-88
2021/08/09 03:30:58;;;;;;;3.47;2.27;;;13.00;99.80;;;;;;6017334;23;20960;-88
2021/08/09 03:33:26;;;;;;;4.40;3.00;;;13.00;99.80;;;;;;6023850;23;20516;-87
2021/08/09 03:35:54;;;;;;;3.90;3.03;;;12.90;99.80;;;;;;6022017;23;20447;-87
2021/08/09 03:38:23;;;;;;;8.03;3.43;;;12.90;99.80;;;;;;6030404;23;20451;-88
2021/08/09 03:40:51;;;;;;;3.77;2.83;;;12.90;99.80;;;;;;6032298;23;20444;-87
2021/08/09 03:43:19;;;;;;;3.47;2.67;;;12.90;99.80;;;;;;6013088;23;20438;-88
2021/08/09 03:45:47;;;;;;;10.67;3.30;;;12.90;99.80;;;;;;6020513;23;20445;-88
2021/08/09 03:48:15;;;;;;;4.20;3.00;;;12.80;99.80;;;;;;6022404;23;20445;-88
2021/08/09 03:50:43;;;;;;;3.23;2.93;;;12.80;99.80;;;;;;6021100;23;20451;-88
2021/08/09 03:53:11;;;;;;;4.80;3.23;;;12.80;99.80;;;;;;6019363;23;20442;-88
2021/08/09 03:55:40;;;;;;;4.23;2.50;;;12.80;99.80;;;;;;6020866;23;20440;-88
2021/08/09 03:58:08;;;;;;;4.17;2.60;;;12.80;99.80;;;;;;6026339;23;20917;-87
2021/08/09 04:00:37;;;;;;;3.03;2.63;;;12.80;99.80;;;;;;5996545;23;20448;-88
2021/08/09 04:03:06;;;;;;;3.40;3.10;;;12.80;99.80;;;;;;6007136;23;20973;-88
2021/08/09 04:05:34;;;;;;;2.90;2.60;;;12.80;99.80;;;;;;6023516;23;20771;-85
2021/08/09 04:08:02;;;;;;;3.13;2.40;;;12.80;99.80;;;;;;6031199;23;20440;-85
2021/08/09 04:10:30;;;;;;;3.43;3.13;;;12.80;99.80;;;;;;6028138;23;20451;-85
2021/08/09 04:12:59;;;;;;;3.80;3.00;;;12.80;99.80;;;;;;6017747;23;20453;-85
2021/08/09 04:15:27;;;;;;;6.60;2.40;;;12.80;99.80;;;;;;6008537;23;20505;-85
2021/08/09 04:17:55;;;;;;;3.43;2.63;;;12.80;99.80;;;;;;6016907;23;20449;-85
2021/08/09 04:20:23;;;;;;;4.40;2.87;;;12.80;99.80;;;;;;6004779;23;20949;-85
2021/08/09 04:22:51;;;;;;;2.93;2.50;;;12.80;99.80;;;;;;6027823;23;20820;-85
2021/08/09 04:25:20;;;;;;;3.07;2.30;;;12.90;99.80;;;;;;6010547;23;20436;-85
2021/08/09 04:27:48;;;;;;;7.10;2.97;;;12.90;99.80;;;;;;6004879;23;20488;-85
2021/08/09 04:30:17;;;;;;;8.90;3.47;;;12.90;99.80;;;;;;6020190;23;20444;-85
2021/08/09 04:32:45;;;;;;;3.40;2.40;;;12.90;99.80;;;;;;6019794;23;20438;-85
2021/08/09 04:35:14;;;;;;;3.00;2.80;;;12.90;99.80;;;;;;6014601;23;20523;-85
2021/08/09 04:37:43;;;;;;;2.70;2.50;;;12.90;99.80;;;;;;6028783;23;20433;-85
2021/08/09 04:40:14;;;;;;;4.67;3.17;;;12.90;99.80;;;;;;6030720;23;20441;-85
2021/08/09 04:42:44;;;;;;;5.80;3.00;;;12.90;99.80;;;;;;6030775;23;20444;-85
2021/08/09 04:45:12;;;;;;;2.73;2.37;;;13.00;99.80;;;;;;6025422;23;20472;-85
2021/08/09 04:47:41;;;;;;;2.90;2.70;;;13.00;99.80;;;;;;6018552;23;20445;-85
2021/08/09 04:50:10;;;;;;;4.50;2.67;;;13.00;99.80;;;;;;6021633;23;20508;-85
2021/08/09 04:52:41;;;;;;;3.70;2.60;;;13.10;99.80;;;;;;6029431;23;20467;-85
2021/08/09 04:55:10;;;;;;;7.43;3.10;;;13.10;99.80;;;;;;6020629;23;20777;-85
2021/08/09 04:57:38;;;;;;;5.10;3.10;;;13.10;99.80;;;;;;6008562;23;20445;-85
2021/08/09 05:00:07;;;;;;;5.07;2.97;;;13.10;99.80;;;;;;6012843;23;20437;-85
2021/08/09 05:02:37;;;;;;;6.30;2.90;;;13.10;99.80;;;;;;5972535;23;20455;-85
2021/08/09 05:05:07;;;;;;;4.60;3.40;;;13.10;99.80;;;;;;6019863;23;20460;-85
2021/08/09 05:07:35;;;;;;;4.33;2.73;;;13.10;99.80;;;;;;6018446;23;20453;-85
2021/08/09 05:10:05;;;;;;;3.80;3.07;;;13.10;99.80;;;;;;6020729;23;20517;-85
2021/08/09 05:12:33;;;;;;;4.10;3.17;;;13.10;99.80;;;;;;5991176;23;20448;-87
2021/08/09 05:15:01;;;;;;;3.67;3.30;;;13.10;99.80;;;;;;6003397;23;20469;-87
2021/08/09 05:17:29;;;;;;;4.90;3.27;;;13.20;99.80;;;;;;6020339;23;20492;-87
2021/08/09 05:19:58;;;;;;;4.53;2.83;;;13.30;99.80;;;;;;6020886;23;20433;-87
2021/08/09 05:22:28;;;;;;;4.17;3.13;;;13.30;99.80;;;;;;6025205;23;20445;-87
2021/08/09 05:24:56;;;;;;;4.57;3.43;;;13.40;99.80;;;;;;6031469;23;20441;-87
2021/08/09 05:27:24;;;;;;;4.53;3.27;;;13.40;99.80;;;;;;6025844;23;20438;-88
2021/08/09 05:29:52;;;;;;;4.23;3.47;;;13.40;99.80;;;;;;6018844;23;20458;-88
2021/08/09 05:32:20;;;;;;;9.90;3.57;;;13.50;99.80;;;;;;6006414;23;20531;-87
2021/08/09 05:34:48;;;;;;;3.93;3.53;;;13.50;99.80;;;;;;6005680;23;20447;-88
2021/08/09 05:37:16;;;;;;;3.23;2.63;;;13.50;99.80;;;;;;6020109;23;20489;-88
2021/08/09 05:39:45;;;;;;;6.17;3.50;;;13.50;99.80;;;;;;6021219;23;20441;-83
2021/08/09 05:42:13;;;;;;;5.00;3.00;;;13.50;99.80;;;;;;6014544;23;20927;-83
2021/08/09 05:44:41;;;;;;;6.57;3.83;;;13.50;99.80;;;;;;6024827;23;20451;-88
2021/08/09 05:47:09;;;;;;;5.67;3.70;;;13.60;99.80;;;;;;6026946;23;20475;-88
2021/08/09 05:49:38;;;;;;;3.40;3.10;;;13.60;99.80;;;;;;6022220;23;20445;-88
2021/08/09 05:52:06;;;;;;;3.50;3.20;;;13.70;99.80;;;;;;6030234;23;20772;-88
2021/08/09 05:54:34;;;;;;;3.63;3.33;;;13.90;99.80;;;;;;6032131;23;20433;-87
2021/08/09 05:57:04;;;;;;;5.00;3.40;;;14.10;99.80;;;;;;6028660;23;20524;-87
2021/08/09 05:59:32;;;;;;;5.03;3.57;;;14.20;99.80;;;;;;6012271;23;20448;-87
2021/08/09 06:01:59;;;;;;;6.73;3.53;;;14.40;99.80;;;;;;5997819;23;20445;-86
2021/08/09 06:04:28;;;;;;;5.60;3.00;;;14.50;99.80;;;;;;5990418;23;21202;-87
2021/08/09 06:06:56;;;;;;;15.53;4.50;;;14.60;99.80;;;;;;6027660;23;20441;-87
2021/08/09 06:09:24;;;;;;;4.47;3.00;;;14.70;99.80;;;;;;6016473;23;20509;-86
2021/08/09 06:11:52;;;;;;;4.30;3.60;;;14.70;99.80;;;;;;6022608;23;21120;-87
2021/08/09 06:14:21;;;;;;;7.03;3.40;;;14.70;99.80;;;;;;6022943;23;20450;-88
2021/08/09 06:16:49;;;;;;;3.60;3.10;;;14.70;99.80;;;;;;6021824;23;20439;-87
2021/08/09 06:19:17;;;;;;;4.00;3.50;;;14.70;99.80;;;;;;6021926;23;20438;-88
2021/08/09 06:21:45;;;;;;;4.20;3.10;;;14.60;99.80;;;;;;6020429;23;20548;-88
2021/08/09 06:24:13;;;;;;;7.63;3.47;;;14.70;99.80;;;;;;6030152;23;20472;-88
2021/08/09 06:26:41;;;;;;;4.30;3.80;;;14.70;99.80;;;;;;6031671;23;21054;-88
2021/08/09 06:29:09;;;;;;;10.83;3.03;;;14.70;99.80;;;;;;6028992;23;20445;-88
2021/08/09 06:31:39;;;;;;;6.40;3.80;;;14.70;99.80;;;;;;6020403;23;20443;-88
2021/08/09 06:34:07;;;;;;;5.30;3.30;;;14.90;99.80;;;;;;6015828;23;20456;-87
2021/08/09 06:36:35;;;;;;;5.87;3.07;;;15.10;99.80;;;;;;6016427;23;20512;-88
2021/08/09 06:39:03;;;;;;;3.50;2.80;;;15.20;99.80;;;;;;6022021;23;20508;-87
2021/08/09 06:41:32;;;;;;;3.60;3.30;;;15.40;99.80;;;;;;6017967;23;20442;-88
2021/08/09 06:44:00;;;;;;;3.70;3.27;;;15.30;99.80;;;;;;6018809;23;20453;-88
2021/08/09 06:46:31;;;;;;;3.83;3.43;;;15.50;99.80;;;;;;6017378;23;20447;-88
2021/08/09 06:49:00;;;;;;;7.27;3.23;;;15.60;99.80;;;;;;6022149;23;20442;-87
2021/08/09 06:51:28;;;;;;;5.27;3.87;;;15.80;99.80;;;;;;6026939;23;20440;-87
2021/08/09 06:53:56;;;;;;;5.80;3.87;;;15.90;99.80;;;;;;6031051;23;20778;-88
2021/08/09 06:56:24;;;;;;;7.30;3.63;;;16.00;99.80;;;;;;6028857;23;21110;-88
2021/08/09 06:58:52;;;;;;;4.90;3.60;;;16.10;99.80;;;;;;6027851;23;20441;-88
2021/08/09 07:01:22;;;;;;;6.13;2.93;;;16.10;99.80;;;;;;6026322;23;20449;-88
2021/08/09 07:03:50;;;;;;;3.80;3.40;;;16.20;99.80;;;;;;6016471;23;20462;-89
2021/08/09 07:06:21;;;;;;;5.47;4.00;;;16.20;99.80;;;;;;6017274;23;20452;-88
2021/08/09 07:08:50;;;;;;;5.10;3.17;;;16.20;99.80;;;;;;6030105;23;20446;-86
2021/08/09 07:11:19;;;;;;;4.53;4.13;;;16.30;99.80;;;;;;6027577;23;20472;-87
2021/08/09 07:13:47;;;;;;;3.77;3.47;;;16.40;99.80;;;;;;6014916;23;20450;-87
2021/08/09 07:16:15;;;;;;;3.70;3.30;;;16.60;99.80;;;;;;6020076;23;20447;-88
2021/08/09 07:18:43;;;;;;;5.73;3.50;;;16.60;99.80;;;;;;6011326;23;20438;-87
2021/08/09 07:21:11;;;;;;;4.80;3.77;;;16.80;99.80;;;;;;6009574;23;20443;-88
2021/08/09 07:23:41;;;;;;;7.90;3.10;;;16.90;99.80;;;;;;5989233;23;21268;-87
2021/08/09 07:26:09;;;;;;;5.17;3.50;;;17.00;99.80;;;;;;6001525;23;20457;-88
2021/08/09 07:28:38;;;;;;;7.10;3.50;;;17.10;99.80;;;;;;6010153;23;20457;-87
2021/08/09 07:31:06;;;;;;;6.33;3.60;;;17.30;99.80;;;;;;5991355;23;20455;-88
2021/08/09 07:33:34;;;;;;;4.50;3.30;;;17.60;99.80;;;;;;6015754;23;20463;-87
2021/08/09 07:36:05;;;;;;;4.50;2.80;;;17.90;99.80;;;;;;6006988;23;20440;-87
2021/08/09 07:38:33;;;;;;;3.10;2.50;;;18.20;99.80;;;;;;6030439;23;20515;-88
2021/08/09 07:41:03;;;;;;;4.90;2.70;;;18.40;99.80;;;;;;6025965;23;20445;-88
2021/08/09 07:43:32;;;;;;;4.73;2.70;;;18.60;99.80;;;;;;6025000;23;20454;-87
2021/08/09 07:46:00;;;;;;;3.63;2.33;;;18.60;99.80;;;;;;6002551;23;20515;-88
2021/08/09 07:48:30;;;;;;;4.50;2.37;;;18.70;99.80;;;;;;5987926;23;20493;-87
2021/08/09 07:50:58;;;;;;;2.70;2.50;;;18.60;99.80;;;;;;6004957;23;20441;-87
2021/08/09 07:53:26;;;;;;;5.07;2.20;;;18.70;99.80;;;;;;6025451;23;20482;-87
2021/08/09 07:55:54;;;;;;;5.20;2.47;;;18.70;99.80;;;;;;6021710;23;20441;-88
2021/08/09 07:58:23;;;;;;;3.53;2.27;;;18.60;99.80;;;;;;6014598;23;20797;-87
2021/08/09 08:00:54;;;;;;;6.77;2.50;;;18.60;99.80;;;;;;5987303;23;20448;-87
2021/08/09 08:03:23;;;;;;;5.83;2.13;;;18.60;99.80;;;;;;6016495;23;20455;-88
2021/08/09 08:05:51;;;;;;;2.20;1.90;;;18.60;99.80;;;;;;6003729;23;20439;-88
2021/08/09 08:08:19;;;;;;;2.77;2.00;;;18.70;99.80;;;;;;6021871;23;20451;-88
2021/08/09 08:10:47;;;;;;;5.30;2.50;;;18.80;99.80;;;;;;6030429;23;20437;-88
2021/08/09 08:13:15;;;;;;;6.43;2.70;;;18.80;99.80;;;;;;6030680;23;20960;-88
2021/08/09 08:15:44;;;;;;;4.90;2.03;;;18.70;99.80;;;;;;6015861;23;20937;-88
2021/08/09 08:18:12;;;;;;;3.00;2.27;;;18.80;99.80;;;;;;6019634;23;20443;-87
2021/08/09 08:20:40;;;;;;;3.17;2.10;;;18.90;99.80;;;;;;6002838;23;20989;-88
2021/08/09 08:23:08;;;;;;;5.60;2.37;;;19.00;99.80;;;;;;6025701;23;20459;-88
2021/08/09 08:25:39;;;;;;;3.20;2.20;;;19.10;99.80;;;;;;5988460;23;20540;-86
2021/08/09 08:28:07;;;;;;;3.23;1.87;;;19.20;99.80;;;;;;5995034;23;20452;-88
2021/08/09 08:30:35;;;;;;;1.90;1.80;;;19.30;99.80;;;;;;6025220;23;20775;-88
2021/08/09 08:33:04;;;;;;;3.73;2.03;;;19.40;99.80;;;;;;6022389;23;20476;-88
2021/08/09 08:35:32;;;;;;;2.17;1.97;;;19.60;99.80;;;;;;6008046;23;20894;-88
2021/08/09 08:38:01;;;;;;;3.87;2.50;;;19.70;99.80;;;;;;6027993;23;21136;-87
2021/08/09 08:40:28;;;;;;;2.03;1.70;;;19.90;99.80;;;;;;6030724;23;20526;-87
2021/08/09 08:42:57;;;;;;;2.37;1.97;;;19.90;99.80;;;;;;6026726;23;20529;-87
2021/08/09 08:45:29;;;;;;;3.47;1.90;;;20.10;99.80;;;;;;6013502;23;20524;-88
2021/08/09 08:47:57;;;;;;;2.00;1.77;;;20.20;99.80;;;;;;6010039;23;20444;-87
2021/08/09 08:50:36;;;;;;;3.10;2.10;;;20.30;99.80;;;;;;5990676;23;20448;-88
2021/08/09 08:53:10;;;;;;;2.13;2.00;;;20.30;99.80;;;;;;6029856;23;20472;-88
2021/08/09 08:56:04;;;;;;;2.23;2.03;;;20.30;99.80;;;;;;6015207;23;20536;-87
2021/08/09 08:58:41;;;;;;;3.70;2.43;;;20.30;99.80;;;;;;5982885;23;20531;-88
2021/08/09 09:01:09;;;;;;;2.37;2.27;;;;;;;;;;6002423;23;20436;-87
2021/08/09 09:03:54;;;;;;;;;;;;;;;;;;;;;
2021/08/09 09:06:23;;;;;;;3.40;2.90;;;20.50;99.80;;;;;;6004052;23;20441;-88
2021/08/09 09:08:51;;;;;;;2.40;1.90;;;20.90;99.80;;;;;;5966196;23;20536;-87
2021/08/09 09:11:37;;;;;;;2.77;2.47;;;21.10;99.80;;;;;;5986853;23;20436;-87
2021/08/09 09:14:07;;;;;;;2.60;2.30;;;21.10;99.80;;;;;;5961391;23;20539;-87
2021/08/09 09:16:45;;;;;;;2.60;1.90;;;21.20;99.80;;;;;;5982798;23;20464;-88
2021/08/09 09:19:30;;;;;;;2.83;2.23;;;21.20;99.80;;;;;;6006489;23;21002;-88
2021/08/09 09:22:00;;;;;;;4.33;1.70;;;21.10;99.80;;;;;;6003034;23;20474;-88
2021/08/09 09:24:30;;;;;;;4.03;2.37;;;21.30;99.80;;;;;;6027834;23;20961;-87
2021/08/09 09:27:01;;;;;;;2.53;2.00;;;21.40;99.80;;;;;;6014737;23;20443;-88
2021/08/09 09:29:36;;;;;;;2.53;2.10;;;21.50;99.80;;;;;;6000241;23;20496;-88
2021/08/09 09:32:18;;;;;;;3.10;1.80;;;21.70;99.80;;;;;;5985646;23;20500;-87
2021/08/09 09:34:56;;;;;;;2.60;1.90;;;21.90;99.80;;;;;;5999478;23;20472;-88
2021/08/09 09:37:29;;;;;;;2.57;1.70;;;22.20;99.10;;;;;;6015369;23;20978;-88
2021/08/09 09:40:07;;;;;;;3.67;2.00;;;22.40;99.70;;;;;;6007157;23;21048;-88
2021/08/09 09:42:36;;;;;;;8.07;2.17;;;22.50;97.40;;;;;;6000902;23;20509;-87
2021/08/09 09:45:20;;;;;;;5.47;2.17;;;22.60;95.90;;;;;;5968682;23;20504;-87
2021/08/09 09:48:02;;;;;;;2.07;1.83;;;22.50;96.40;;;;;;5997730;23;20433;-88
2021/08/09 09:50:31;;;;;;;5.87;1.80;;;22.20;97.30;;;;;;6004860;23;20441;-87
2021/08/09 09:53:14;;;;;;;2.40;1.40;;;22.00;97.00;;;;;;6027614;23;20446;-88
2021/08/09 09:55:43;;;;;;;1.70;1.50;;;21.90;98.20;;;;;;6031812;23;20432;-88
2021/08/09 09:58:11;;;;;;;4.50;1.60;;;22.00;96.40;;;;;;6028825;23;20548;-87
2021/08/09 10:00:42;;;;;;;2.30;1.97;;;22.30;94.60;;;;;;5986771;23;20520;-88
2021/08/09 10:03:11;;;;;;;2.13;2.03;;;22.40;96.10;;;;;;6001836;23;21001;-89
2021/08/09 10:05:40;;;;;;;1.50;1.40;;;22.50;96.20;;;;;;6003980;23;20435;-88
2021/08/09 10:08:14;;;;;;;2.10;1.63;;;22.80;95.80;;;;;;6028184;23;20463;-87
2021/08/09 10:10:45;;;;;;;1.97;1.73;;;23.00;93.50;;;;;;6002908;23;20456;-88
2021/08/09 10:13:16;;;;;;;1.80;1.70;;;23.40;96.30;;;;;;5988584;23;20448;-86
2021/08/09 10:15:48;;;;;;;3.27;1.97;;;23.80;91.70;;;;;;5992277;23;20438;-86
2021/08/09 10:18:22;;;;;;;2.10;1.43;;;24.00;91.20;;;;;;5999544;23;20928;-86
2021/08/09 10:20:50;;;;;;;8.13;1.93;;;24.10;91.60;;;;;;6010195;23;20437;-85
2021/08/09 10:23:36;;;;;;;2.37;1.67;;;24.10;91.60;;;;;;6029295;23;21025;-86
2021/08/09 10:26:04;;;;;;;3.50;1.93;;;24.20;92.00;;;;;;6033999;23;20436;-84
2021/08/09 10:29:10;;;;;;;4.07;1.90;;;24.10;90.20;;;;;;6033910;23;20438;-86
2021/08/09 10:31:40;;;;;;;3.60;1.63;;;24.10;90.50;;;;;;6033393;23;20432;-87
2021/08/09 10:34:09;;;;;;;3.07;1.73;;;23.80;93.40;;;;;;6034769;23;20796;-86
2021/08/09 10:37:08;;;;;;;3.83;2.13;;;23.60;92.80;;;;;;6034566;23;20421;-86
2021/08/09 10:39:52;;;;;;;3.50;1.77;;;23.60;93.80;;;;;;6034263;23;21049;-86
2021/08/09 10:42:39;;;;;;;3.50;1.90;;;23.60;94.10;;;;;;6034326;23;20433;-87
2021/08/09 10:45:09;;;;;;;2.27;1.53;;;23.80;94.00;;;;;;6034198;23;20524;-86
2021/08/09 10:47:55;;;;;;;3.90;1.93;;;23.90;93.80;;;;;;6034242;23;20451;-86
2021/08/09 10:50:54;;;;;;;3.60;2.10;;;24.10;94.40;;;;;;6032911;23;20441;-86
2021/08/09 10:53:43;;;;;;;4.50;2.20;;;24.30;92.10;;;;;;6031695;23;20445;-86
2021/08/09 10:56:46;;;;;;;3.03;1.90;;;24.60;93.60;;;;;;6032694;23;20440;-86
2021/08/09 10:59:42;;;;;;;4.93;1.73;;;25.10;91.30;;;;;;6031323;23;20442;-86
2021/08/09 11:02:21;;;;;;;3.47;1.73;;;25.50;91.00;;;;;;6031966;23;20439;-85
2021/08/09 11:05:27;;;;;;;4.20;2.37;;;25.50;87.30;;;;;;6032378;23;20437;-87
2021/08/09 11:08:30;;;;;;;2.20;1.90;;;25.60;87.20;;;;;;6031764;23;20451;-86
2021/08/09 11:11:00;;;;;;;3.60;2.00;;;25.60;87.40;;;;;;6032255;23;20428;-86
2021/08/09 11:13:52;;;;;;;2.23;1.77;;;25.60;87.20;;;;;;6032350;23;20441;-86
2021/08/09 11:16:30;;;;;;;3.20;1.70;;;25.30;89.00;;;;;;6030516;23;20435;-85
2021/08/09 11:18:58;;;;;;;1.80;1.60;;;24.70;86.20;;;;;;6032496;23;20430;-87
2021/08/09 11:21:28;;;;;;;1.97;1.70;;;24.10;87.00;;;;;;6028282;23;20447;-86
2021/08/09 11:23:56;;;;;;;7.30;2.33;;;24.10;87.00;;;;;;6031131;23;20451;-87
2021/08/09 11:26:26;;;;;;;2.37;2.03;;;23.00;91.00;;;;;;6031498;23;20453;-85
2021/08/09 11:29:02;;;;;;;6.73;2.70;;;22.60;92.50;;;;;;6032134;23;20446;-85
2021/08/09 11:31:44;;;;;;;4.33;2.70;;;22.60;92.70;;;;;;6032176;23;20473;-85
2021/08/09 11:34:13;;;;;;;4.20;2.27;;;21.90;96.10;;;;;;6028077;23;20441;-84
2021/08/09 11:36:41;;;;;;;3.77;2.63;;;21.80;95.90;;;;;;6031324;23;20961;-84
2021/08/09 11:39:14;;;;;;;12.80;2.90;;;21.60;95.50;;;;;;6032384;23;20453;-85
2021/08/09 11:41:54;;;;;;;4.57;3.20;;;21.60;96.10;;;;;;6030145;23;20520;-86
2021/08/09 11:44:24;;;;;;;5.37;3.30;;;21.50;97.10;;;;;;6026755;23;20445;-86
2021/08/09 11:46:52;;;;;;;5.30;2.80;;;21.50;98.80;;;;;;6024368;23;20816;-85
2021/08/09 11:49:21;;;;;;;3.60;3.00;;;21.50;97.20;;;;;;6011382;23;20459;-85
2021/08/09 11:51:49;;;;;;;6.23;2.97;;;21.60;98.20;;;;;;6020925;23;20441;-85
2021/08/09 11:54:18;;;;;;;7.20;3.03;;;21.70;99.40;;;;;;6015656;23;20449;-86
2021/08/09 11:56:53;;;;;;;5.70;3.73;;;21.90;98.30;;;;;;6024692;23;20448;-85
2021/08/09 11:59:23;;;;;;;4.33;2.90;;;21.90;98.60;;;;;;6002079;23;21049;-86
2021/08/09 12:01:52;;;;;;;6.73;3.47;;;22.00;97.60;;;;;;5978232;23;20441;-87
2021/08/09 12:04:22;;;;;;;4.47;2.67;;;21.80;96.60;;;;;;6017392;23;20453;-86
2021/08/09 12:06:54;;;;;;;2.70;2.27;;;21.80;95.00;;;;;;6013474;23;20938;-86
2021/08/09 12:09:36;;;;;;;7.50;2.60;;;21.80;95.50;;;;;;6010950;23;20521;-88
2021/08/09 12:12:06;;;;;;;2.70;1.87;;;21.80;96.70;;;;;;6012875;23;20457;-87
2021/08/09 12:14:36;;;;;;;3.67;1.80;;;21.80;95.20;;;;;;6006998;23;20472;-88
2021/08/09 12:17:14;;;;;;;4.57;1.83;;;21.90;95.60;;;;;;6022461;23;20442;-89
2021/08/09 12:19:44;;;;;;;2.03;1.50;;;21.90;96.20;;;;;;6019840;23;20455;-89
2021/08/09 12:22:13;;;;;;;3.70;1.77;;;22.20;96.60;;;;;;6024406;23;20441;-88
2021/08/09 12:25:06;;;;;;;5.23;1.90;;;22.70;96.90;;;;;;5998009;23;20548;-89
2021/08/09 12:27:37;;;;;;;4.40;1.77;;;;;;;;;;5986879;23;20973;-89
2021/08/09 12:30:10;;;;;;;1.70;1.60;;;23.90;93.20;;;;;;6002834;23;20438;-89
2021/08/09 12:32:40;;;;;;;2.83;1.80;;;24.50;89.80;;;;;;6021222;23;20464;-89
2021/08/09 12:35:09;;;;;;;2.33;1.50;;;;;;;;;;6013674;23;20766;-89
2021/08/09 12:37:54;;;;;;;5.90;1.90;;;28.10;81.50;;;;;;6003638;23;20449;-89
2021/08/09 12:40:22;;;;;;;2.13;1.43;;;27.30;81.40;;;;;;5993090;23;20448;-87
2021/08/09 13:26:53;;;;;;;2.30;1.63;;;24.50;84.80;;;;;;6016335;23;20447;-87
2021/08/09 13:30:01;;;;;;;;;;;;;;;;;;;;;
2021/08/09 13:32:40;;;;;;;1.63;1.53;;;24.50;82.00;;;;;;6009812;23;20474;-88
2021/08/09 13:35:09;;;;;;;3.43;1.73;;;24.50;83.30;;;;;;6013773;23;20438;-88
2021/08/09 13:37:37;;;;;;;2.23;1.43;;;24.70;82.10;;;;;;6023829;23;20443;-88
2021/08/09 13:40:16;;;;;;;3.97;1.80;;;25.20;79.60;;;;;;5988793;23;20819;-89
2021/08/09 13:43:11;;;;;;;1.93;1.70;;;25.50;77.80;;;;;;5963850;23;20980;-90
2021/08/09 13:45:47;;;;;;;4.20;2.17;;;25.80;75.50;;;;;;5970472;23;20522;-89
2021/08/09 13:48:19;;;;;;;7.23;2.03;;;26.10;78.50;;;;;;6036968;23;20447;-88
2021/08/09 13:51:07;;;;;;;4.60;2.40;;;26.50;76.20;;;;;;6026484;23;20448;-89
2021/08/09 13:53:42;;;;;;;2.70;1.40;;;26.60;75.00;;;;;;6021454;23;20451;-89
2021/08/09 13:56:28;;;;;;;;;;;;;;;;;;;;;